Terminal Aerodrome Forecast
Issued by NWS

Home | Current Version | Previous Version | Text Only | Print | Product List | Glossary On
Versions: 1 2 3 4 5 6 7 8 9 10 11 12 13 14 15
000
FTUS45 KBOU 201136
TAFAPA
TAF
KAPA 201136Z 2012/2112 18005KT P6SM SCT120 SCT200
     FM201600 33005KT P6SM FEW140 SCT200
     FM201800 04007KT P6SM FEW090 SCT140 SCT200
     FM202100 09010KT P6SM VCTS SCT090CB SCT130 BKN200 PROB30
      2022/2102 VRB20G35KT -TSRA BKN060CB
     FM210200 14009KT P6SM SCT100 BKN200
     FM210400 20008KT P6SM FEW100 SCT200=

USA.gov is the U.S. government's official web portal to all federal, state and local government web resources and services.